sensor_id;sensor_type;location;lat;lon;timestamp;P1;durP1;ratioP1;P2;durP2;ratioP2
12024;SDS011;6073;53.230;10.444;2023-07-31T00:01:55;3.10;;;2.22;;
12024;SDS011;6073;53.230;10.444;2023-07-31T00:04:20;4.78;;;2.30;;
12024;SDS011;6073;53.230;10.444;2023-07-31T00:06:46;4.35;;;2.28;;
12024;SDS011;6073;53.230;10.444;2023-07-31T00:09:11;5.28;;;2.30;;
12024;SDS011;6073;53.230;10.444;2023-07-31T00:11:37;3.80;;;2.30;;
12024;SDS011;6073;53.230;10.444;2023-07-31T00:14:02;4.03;;;2.15;;
12024;SDS011;6073;53.230;10.444;2023-07-31T00:16:28;6.05;;;2.28;;
12024;SDS011;6073;53.230;10.444;2023-07-31T00:18:54;5.30;;;2.20;;
12024;SDS011;6073;53.230;10.444;2023-07-31T00:21:19;5.45;;;2.25;;
12024;SDS011;6073;53.230;10.444;2023-07-31T00:23:45;4.05;;;2.50;;
12024;SDS011;6073;53.230;10.444;2023-07-31T00:26:10;3.85;;;2.28;;
12024;SDS011;6073;53.230;10.444;2023-07-31T00:28:36;5.35;;;2.40;;
12024;SDS011;6073;53.230;10.444;2023-07-31T00:31:01;4.70;;;2.15;;
12024;SDS011;6073;53.230;10.444;2023-07-31T00:33:28;4.82;;;2.42;;
12024;SDS011;6073;53.230;10.444;2023-07-31T00:35:55;5.25;;;2.33;;
12024;SDS011;6073;53.230;10.444;2023-07-31T00:38:21;4.68;;;2.30;;
12024;SDS011;6073;53.230;10.444;2023-07-31T00:40:46;6.20;;;2.50;;
12024;SDS011;6073;53.230;10.444;2023-07-31T00:43:12;4.22;;;2.50;;
12024;SDS011;6073;53.230;10.444;2023-07-31T00:45:37;4.63;;;2.30;;
12024;SDS011;6073;53.230;10.444;2023-07-31T00:48:04;6.18;;;2.47;;
12024;SDS011;6073;53.230;10.444;2023-07-31T00:50:31;4.20;;;2.20;;
12024;SDS011;6073;53.230;10.444;2023-07-31T00:52:57;3.38;;;2.30;;
12024;SDS011;6073;53.230;10.444;2023-07-31T00:55:23;3.40;;;2.50;;
12024;SDS011;6073;53.230;10.444;2023-07-31T00:57:49;4.18;;;2.67;;
12024;SDS011;6073;53.230;10.444;2023-07-31T01:00:16;4.63;;;2.35;;
12024;SDS011;6073;53.230;10.444;2023-07-31T01:02:42;4.80;;;2.25;;
12024;SDS011;6073;53.230;10.444;2023-07-31T01:05:08;5.03;;;2.40;;
12024;SDS011;6073;53.230;10.444;2023-07-31T01:08:37;4.90;;;2.95;;
12024;SDS011;6073;53.230;10.444;2023-07-31T01:10:41;4.55;;;2.50;;
12024;SDS011;6073;53.230;10.444;2023-07-31T01:13:15;5.22;;;2.55;;
12024;SDS011;6073;53.230;10.444;2023-07-31T01:15:42;4.95;;;2.65;;
12024;SDS011;6073;53.230;10.444;2023-07-31T01:18:08;4.35;;;2.60;;
12024;SDS011;6073;53.230;10.444;2023-07-31T01:20:33;4.13;;;2.28;;
12024;SDS011;6073;53.230;10.444;2023-07-31T01:23:11;5.72;;;2.75;;
12024;SDS011;6073;53.230;10.444;2023-07-31T01:26:05;4.03;;;2.53;;
12024;SDS011;6073;53.230;10.444;2023-07-31T01:28:44;9.07;;;3.08;;
12024;SDS011;6073;53.230;10.444;2023-07-31T01:31:32;6.65;;;2.85;;
12024;SDS011;6073;53.230;10.444;2023-07-31T01:34:02;5.10;;;2.70;;
12024;SDS011;6073;53.230;10.444;2023-07-31T01:36:29;5.57;;;3.00;;
12024;SDS011;6073;53.230;10.444;2023-07-31T01:38:59;6.30;;;2.90;;
12024;SDS011;6073;53.230;10.444;2023-07-31T01:41:25;5.68;;;2.83;;
12024;SDS011;6073;53.230;10.444;2023-07-31T01:43:51;6.55;;;2.97;;
12024;SDS011;6073;53.230;10.444;2023-07-31T01:46:16;3.92;;;2.42;;
12024;SDS011;6073;53.230;10.444;2023-07-31T01:48:42;5.90;;;2.88;;
12024;SDS011;6073;53.230;10.444;2023-07-31T01:51:07;4.90;;;2.80;;
12024;SDS011;6073;53.230;10.444;2023-07-31T01:53:33;5.53;;;2.80;;
12024;SDS011;6073;53.230;10.444;2023-07-31T01:55:58;5.90;;;2.67;;
12024;SDS011;6073;53.230;10.444;2023-07-31T01:58:24;5.85;;;3.03;;
12024;SDS011;6073;53.230;10.444;2023-07-31T02:00:49;4.57;;;2.85;;
12024;SDS011;6073;53.230;10.444;2023-07-31T02:03:15;8.48;;;3.10;;
12024;SDS011;6073;53.230;10.444;2023-07-31T02:05:47;4.13;;;2.78;;
12024;SDS011;6073;53.230;10.444;2023-07-31T02:08:13;6.95;;;3.25;;
12024;SDS011;6073;53.230;10.444;2023-07-31T02:10:39;8.15;;;2.95;;
12024;SDS011;6073;53.230;10.444;2023-07-31T02:13:05;7.50;;;3.30;;
12024;SDS011;6073;53.230;10.444;2023-07-31T02:15:31;4.15;;;2.67;;
12024;SDS011;6073;53.230;10.444;2023-07-31T02:17:56;3.90;;;3.10;;
12024;SDS011;6073;53.230;10.444;2023-07-31T02:20:22;6.25;;;3.22;;
12024;SDS011;6073;53.230;10.444;2023-07-31T02:22:47;5.43;;;3.20;;
12024;SDS011;6073;53.230;10.444;2023-07-31T02:25:13;6.00;;;3.35;;
12024;SDS011;6073;53.230;10.444;2023-07-31T02:27:39;7.80;;;3.60;;
12024;SDS011;6073;53.230;10.444;2023-07-31T02:30:04;4.88;;;3.28;;
12024;SDS011;6073;53.230;10.444;2023-07-31T02:32:30;5.25;;;3.30;;
12024;SDS011;6073;53.230;10.444;2023-07-31T02:34:56;6.63;;;3.90;;
12024;SDS011;6073;53.230;10.444;2023-07-31T02:37:21;7.78;;;3.97;;
12024;SDS011;6073;53.230;10.444;2023-07-31T02:39:47;5.97;;;4.03;;
12024;SDS011;6073;53.230;10.444;2023-07-31T02:42:12;6.07;;;4.35;;
12024;SDS011;6073;53.230;10.444;2023-07-31T02:44:39;6.22;;;4.50;;
12024;SDS011;6073;53.230;10.444;2023-07-31T02:47:04;6.55;;;4.65;;
12024;SDS011;6073;53.230;10.444;2023-07-31T02:49:30;5.85;;;4.65;;
12024;SDS011;6073;53.230;10.444;2023-07-31T02:51:55;7.80;;;4.88;;
12024;SDS011;6073;53.230;10.444;2023-07-31T02:54:21;6.65;;;5.03;;
12024;SDS011;6073;53.230;10.444;2023-07-31T02:56:46;6.32;;;4.88;;
12024;SDS011;6073;53.230;10.444;2023-07-31T02:59:12;7.72;;;4.90;;
12024;SDS011;6073;53.230;10.444;2023-07-31T03:01:38;7.53;;;4.88;;
12024;SDS011;6073;53.230;10.444;2023-07-31T03:04:04;8.40;;;5.22;;
12024;SDS011;6073;53.230;10.444;2023-07-31T03:06:30;6.05;;;5.15;;
12024;SDS011;6073;53.230;10.444;2023-07-31T03:08:55;7.72;;;5.55;;
12024;SDS011;6073;53.230;10.444;2023-07-31T03:11:21;7.18;;;5.65;;
12024;SDS011;6073;53.230;10.444;2023-07-31T03:13:46;6.05;;;5.45;;
12024;SDS011;6073;53.230;10.444;2023-07-31T03:16:12;7.35;;;5.63;;
12024;SDS011;6073;53.230;10.444;2023-07-31T03:18:37;7.65;;;6.35;;
12024;SDS011;6073;53.230;10.444;2023-07-31T03:21:03;8.55;;;5.40;;
12024;SDS011;6073;53.230;10.444;2023-07-31T03:23:29;7.25;;;5.93;;
12024;SDS011;6073;53.230;10.444;2023-07-31T03:25:59;7.93;;;6.05;;
12024;SDS011;6073;53.230;10.444;2023-07-31T03:28:26;7.68;;;5.13;;
12024;SDS011;6073;53.230;10.444;2023-07-31T03:30:52;6.05;;;5.38;;
12024;SDS011;6073;53.230;10.444;2023-07-31T03:33:18;7.43;;;5.70;;
12024;SDS011;6073;53.230;10.444;2023-07-31T03:35:43;9.70;;;6.20;;
12024;SDS011;6073;53.230;10.444;2023-07-31T03:38:09;6.35;;;5.07;;
12024;SDS011;6073;53.230;10.444;2023-07-31T03:40:35;9.45;;;5.88;;
12024;SDS011;6073;53.230;10.444;2023-07-31T03:43:00;9.70;;;6.05;;
12024;SDS011;6073;53.230;10.444;2023-07-31T03:45:26;6.00;;;5.40;;
12024;SDS011;6073;53.230;10.444;2023-07-31T03:47:51;7.13;;;5.40;;
12024;SDS011;6073;53.230;10.444;2023-07-31T03:50:17;7.15;;;5.75;;
12024;SDS011;6073;53.230;10.444;2023-07-31T03:52:42;7.55;;;5.65;;
12024;SDS011;6073;53.230;10.444;2023-07-31T03:55:08;6.75;;;5.38;;
12024;SDS011;6073;53.230;10.444;2023-07-31T03:57:33;5.85;;;5.25;;
12024;SDS011;6073;53.230;10.444;2023-07-31T03:59:59;7.05;;;5.10;;
12024;SDS011;6073;53.230;10.444;2023-07-31T04:02:25;7.45;;;5.20;;
12024;SDS011;6073;53.230;10.444;2023-07-31T04:04:50;6.05;;;5.45;;
12024;SDS011;6073;53.230;10.444;2023-07-31T04:07:15;10.20;;;5.53;;
12024;SDS011;6073;53.230;10.444;2023-07-31T04:09:41;7.45;;;5.72;;
12024;SDS011;6073;53.230;10.444;2023-07-31T04:12:07;6.05;;;5.25;;
12024;SDS011;6073;53.230;10.444;2023-07-31T04:14:32;5.93;;;5.32;;
12024;SDS011;6073;53.230;10.444;2023-07-31T04:16:58;7.00;;;5.97;;
12024;SDS011;6073;53.230;10.444;2023-07-31T04:19:24;7.40;;;6.10;;
12024;SDS011;6073;53.230;10.444;2023-07-31T04:21:49;7.28;;;5.50;;
12024;SDS011;6073;53.230;10.444;2023-07-31T04:24:15;6.22;;;5.55;;
12024;SDS011;6073;53.230;10.444;2023-07-31T04:26:40;7.07;;;5.05;;
12024;SDS011;6073;53.230;10.444;2023-07-31T04:29:06;7.82;;;5.90;;
12024;SDS011;6073;53.230;10.444;2023-07-31T04:31:32;6.65;;;5.60;;
12024;SDS011;6073;53.230;10.444;2023-07-31T04:33:58;6.40;;;5.10;;
12024;SDS011;6073;53.230;10.444;2023-07-31T04:36:24;6.55;;;4.88;;
12024;SDS011;6073;53.230;10.444;2023-07-31T04:38:49;6.90;;;5.00;;
12024;SDS011;6073;53.230;10.444;2023-07-31T04:41:15;6.10;;;5.45;;
12024;SDS011;6073;53.230;10.444;2023-07-31T04:43:40;5.40;;;4.88;;
12024;SDS011;6073;53.230;10.444;2023-07-31T04:46:06;6.07;;;4.95;;
12024;SDS011;6073;53.230;10.444;2023-07-31T04:48:32;7.15;;;4.93;;
12024;SDS011;6073;53.230;10.444;2023-07-31T04:50:57;5.35;;;4.57;;
12024;SDS011;6073;53.230;10.444;2023-07-31T04:53:23;5.32;;;4.82;;
12024;SDS011;6073;53.230;10.444;2023-07-31T04:55:48;7.82;;;5.00;;
12024;SDS011;6073;53.230;10.444;2023-07-31T04:58:14;5.82;;;4.68;;
12024;SDS011;6073;53.230;10.444;2023-07-31T05:00:39;4.55;;;4.15;;
12024;SDS011;6073;53.230;10.444;2023-07-31T05:03:05;4.82;;;4.43;;
12024;SDS011;6073;53.230;10.444;2023-07-31T05:05:31;5.32;;;4.75;;
12024;SDS011;6073;53.230;10.444;2023-07-31T05:07:56;4.85;;;4.35;;
12024;SDS011;6073;53.230;10.444;2023-07-31T05:10:22;6.22;;;4.78;;
12024;SDS011;6073;53.230;10.444;2023-07-31T05:12:47;5.15;;;4.65;;
12024;SDS011;6073;53.230;10.444;2023-07-31T05:15:13;4.53;;;4.13;;
12024;SDS011;6073;53.230;10.444;2023-07-31T05:17:38;4.38;;;3.97;;
12024;SDS011;6073;53.230;10.444;2023-07-31T05:20:04;7.78;;;4.32;;
12024;SDS011;6073;53.230;10.444;2023-07-31T05:22:30;4.85;;;4.35;;
12024;SDS011;6073;53.230;10.444;2023-07-31T05:24:56;7.50;;;4.50;;
12024;SDS011;6073;53.230;10.444;2023-07-31T05:27:21;5.38;;;4.43;;
12024;SDS011;6073;53.230;10.444;2023-07-31T05:29:47;5.00;;;4.50;;
12024;SDS011;6073;53.230;10.444;2023-07-31T05:32:12;5.13;;;3.83;;
12024;SDS011;6073;53.230;10.444;2023-07-31T05:34:38;4.78;;;4.30;;
12024;SDS011;6073;53.230;10.444;2023-07-31T05:37:04;4.40;;;3.95;;
12024;SDS011;6073;53.230;10.444;2023-07-31T05:39:29;4.10;;;3.70;;
12024;SDS011;6073;53.230;10.444;2023-07-31T05:41:55;4.40;;;4.00;;
12024;SDS011;6073;53.230;10.444;2023-07-31T05:44:20;4.40;;;4.00;;
12024;SDS011;6073;53.230;10.444;2023-07-31T05:46:46;3.88;;;3.50;;
12024;SDS011;6073;53.230;10.444;2023-07-31T05:49:11;4.05;;;3.30;;
12024;SDS011;6073;53.230;10.444;2023-07-31T05:51:37;4.00;;;3.25;;
12024;SDS011;6073;53.230;10.444;2023-07-31T05:54:02;3.65;;;3.15;;
12024;SDS011;6073;53.230;10.444;2023-07-31T05:56:28;4.15;;;3.63;;
12024;SDS011;6073;53.230;10.444;2023-07-31T05:58:53;3.70;;;3.40;;
12024;SDS011;6073;53.230;10.444;2023-07-31T06:01:19;3.55;;;2.90;;
12024;SDS011;6073;53.230;10.444;2023-07-31T06:03:46;3.83;;;3.20;;
12024;SDS011;6073;53.230;10.444;2023-07-31T06:06:11;4.30;;;3.25;;
12024;SDS011;6073;53.230;10.444;2023-07-31T06:08:38;3.10;;;2.70;;
12024;SDS011;6073;53.230;10.444;2023-07-31T06:11:04;3.53;;;2.63;;
12024;SDS011;6073;53.230;10.444;2023-07-31T06:13:30;3.15;;;2.92;;
12024;SDS011;6073;53.230;10.444;2023-07-31T06:15:56;3.28;;;2.97;;
12024;SDS011;6073;53.230;10.444;2023-07-31T06:18:21;2.65;;;2.45;;
12024;SDS011;6073;53.230;10.444;2023-07-31T06:20:47;3.10;;;2.80;;
12024;SDS011;6073;53.230;10.444;2023-07-31T06:23:18;2.60;;;2.40;;
12024;SDS011;6073;53.230;10.444;2023-07-31T06:25:44;2.60;;;2.40;;
12024;SDS011;6073;53.230;10.444;2023-07-31T06:28:09;2.25;;;2.10;;
12024;SDS011;6073;53.230;10.444;2023-07-31T06:30:35;2.30;;;2.10;;
12024;SDS011;6073;53.230;10.444;2023-07-31T06:33:00;2.85;;;2.60;;
12024;SDS011;6073;53.230;10.444;2023-07-31T06:35:26;2.60;;;2.22;;
12024;SDS011;6073;53.230;10.444;2023-07-31T06:37:51;2.25;;;2.00;;
12024;SDS011;6073;53.230;10.444;2023-07-31T06:40:17;2.03;;;1.90;;
12024;SDS011;6073;53.230;10.444;2023-07-31T06:42:42;2.97;;;1.80;;
12024;SDS011;6073;53.230;10.444;2023-07-31T06:45:11;2.53;;;1.80;;
12024;SDS011;6073;53.230;10.444;2023-07-31T06:47:36;1.95;;;1.85;;
12024;SDS011;6073;53.230;10.444;2023-07-31T06:50:02;1.95;;;1.70;;
12024;SDS011;6073;53.230;10.444;2023-07-31T06:52:27;1.90;;;1.50;;
12024;SDS011;6073;53.230;10.444;2023-07-31T06:55:03;1.98;;;1.80;;
12024;SDS011;6073;53.230;10.444;2023-07-31T06:57:40;1.70;;;1.42;;
12024;SDS011;6073;53.230;10.444;2023-07-31T07:00:06;2.17;;;1.40;;
12024;SDS011;6073;53.230;10.444;2023-07-31T07:02:32;1.50;;;1.40;;
12024;SDS011;6073;53.230;10.444;2023-07-31T07:04:58;1.42;;;1.33;;
12024;SDS011;6073;53.230;10.444;2023-07-31T07:07:23;1.95;;;1.42;;
12024;SDS011;6073;53.230;10.444;2023-07-31T07:09:49;1.63;;;1.40;;
12024;SDS011;6073;53.230;10.444;2023-07-31T07:12:14;1.80;;;1.27;;
12024;SDS011;6073;53.230;10.444;2023-07-31T07:14:40;1.60;;;1.50;;
12024;SDS011;6073;53.230;10.444;2023-07-31T07:17:05;1.52;;;1.42;;
12024;SDS011;6073;53.230;10.444;2023-07-31T07:19:31;1.30;;;1.20;;
12024;SDS011;6073;53.230;10.444;2023-07-31T07:21:56;1.65;;;1.10;;
12024;SDS011;6073;53.230;10.444;2023-07-31T07:24:22;1.42;;;1.30;;
12024;SDS011;6073;53.230;10.444;2023-07-31T07:26:47;1.33;;;1.23;;
12024;SDS011;6073;53.230;10.444;2023-07-31T07:29:13;1.55;;;1.45;;
12024;SDS011;6073;53.230;10.444;2023-07-31T07:31:38;2.20;;;1.50;;
12024;SDS011;6073;53.230;10.444;2023-07-31T07:34:04;1.48;;;1.30;;
12024;SDS011;6073;53.230;10.444;2023-07-31T07:36:29;1.40;;;1.30;;
12024;SDS011;6073;53.230;10.444;2023-07-31T07:38:57;1.60;;;1.20;;
12024;SDS011;6073;53.230;10.444;2023-07-31T07:41:23;1.60;;;1.48;;
12024;SDS011;6073;53.230;10.444;2023-07-31T07:43:48;1.50;;;1.40;;
12024;SDS011;6073;53.230;10.444;2023-07-31T07:46:14;1.80;;;1.23;;
12024;SDS011;6073;53.230;10.444;2023-07-31T07:48:39;1.48;;;1.10;;
12024;SDS011;6073;53.230;10.444;2023-07-31T07:51:05;1.67;;;1.30;;
12024;SDS011;6073;53.230;10.444;2023-07-31T07:53:30;1.65;;;1.30;;
12024;SDS011;6073;53.230;10.444;2023-07-31T07:55:56;2.20;;;1.25;;
12024;SDS011;6073;53.230;10.444;2023-07-31T07:58:21;1.50;;;1.25;;
12024;SDS011;6073;53.230;10.444;2023-07-31T08:00:50;1.10;;;1.00;;
12024;SDS011;6073;53.230;10.444;2023-07-31T08:03:16;2.25;;;1.05;;
12024;SDS011;6073;53.230;10.444;2023-07-31T08:05:42;1.52;;;1.20;;
12024;SDS011;6073;53.230;10.444;2023-07-31T08:08:13;1.40;;;1.30;;
12024;SDS011;6073;53.230;10.444;2023-07-31T08:10:41;1.65;;;1.40;;
12024;SDS011;6073;53.230;10.444;2023-07-31T08:13:07;1.58;;;1.48;;
12024;SDS011;6073;53.230;10.444;2023-07-31T08:15:32;1.73;;;1.17;;
12024;SDS011;6073;53.230;10.444;2023-07-31T08:17:58;1.15;;;1.05;;
12024;SDS011;6073;53.230;10.444;2023-07-31T08:20:23;1.10;;;1.00;;
12024;SDS011;6073;53.230;10.444;2023-07-31T08:22:49;1.35;;;1.00;;
12024;SDS011;6073;53.230;10.444;2023-07-31T08:25:14;0.95;;;0.90;;
12024;SDS011;6073;53.230;10.444;2023-07-31T08:27:43;1.05;;;1.00;;
12024;SDS011;6073;53.230;10.444;2023-07-31T08:30:08;0.80;;;0.80;;
12024;SDS011;6073;53.230;10.444;2023-07-31T08:32:34;0.93;;;0.93;;
12024;SDS011;6073;53.230;10.444;2023-07-31T08:35:00;1.42;;;1.02;;
12024;SDS011;6073;53.230;10.444;2023-07-31T08:37:25;0.73;;;0.73;;
12024;SDS011;6073;53.230;10.444;2023-07-31T08:39:51;0.82;;;0.82;;
12024;SDS011;6073;53.230;10.444;2023-07-31T08:42:16;1.77;;;1.00;;
12024;SDS011;6073;53.230;10.444;2023-07-31T08:44:43;0.80;;;0.80;;
12024;SDS011;6073;53.230;10.444;2023-07-31T08:47:09;1.00;;;0.90;;
12024;SDS011;6073;53.230;10.444;2023-07-31T08:49:36;0.80;;;0.80;;
12024;SDS011;6073;53.230;10.444;2023-07-31T08:52:03;0.85;;;0.70;;
12024;SDS011;6073;53.230;10.444;2023-07-31T08:54:29;0.85;;;0.80;;
12024;SDS011;6073;53.230;10.444;2023-07-31T08:56:56;1.00;;;0.70;;
12024;SDS011;6073;53.230;10.444;2023-07-31T08:59:22;0.88;;;0.88;;
12024;SDS011;6073;53.230;10.444;2023-07-31T09:01:50;0.75;;;0.70;;
12024;SDS011;6073;53.230;10.444;2023-07-31T09:04:18;0.70;;;0.70;;
12024;SDS011;6073;53.230;10.444;2023-07-31T09:06:46;0.80;;;0.70;;
12024;SDS011;6073;53.230;10.444;2023-07-31T09:09:13;1.02;;;0.80;;
12024;SDS011;6073;53.230;10.444;2023-07-31T09:11:39;0.73;;;0.73;;
12024;SDS011;6073;53.230;10.444;2023-07-31T09:14:04;0.98;;;0.65;;
12024;SDS011;6073;53.230;10.444;2023-07-31T09:16:34;0.60;;;0.60;;
12024;SDS011;6073;53.230;10.444;2023-07-31T09:19:00;1.13;;;0.85;;
12024;SDS011;6073;53.230;10.444;2023-07-31T09:21:30;0.63;;;0.63;;
12024;SDS011;6073;53.230;10.444;2023-07-31T09:23:55;1.15;;;0.88;;
12024;SDS011;6073;53.230;10.444;2023-07-31T09:26:31;1.85;;;0.93;;
12024;SDS011;6073;53.230;10.444;2023-07-31T09:29:01;1.33;;;1.08;;
12024;SDS011;6073;53.230;10.444;2023-07-31T09:31:32;1.55;;;1.30;;
12024;SDS011;6073;53.230;10.444;2023-07-31T09:34:08;1.30;;;1.20;;
12024;SDS011;6073;53.230;10.444;2023-07-31T09:36:41;1.60;;;1.50;;
12024;SDS011;6073;53.230;10.444;2023-07-31T09:39:11;2.47;;;1.90;;
12024;SDS011;6073;53.230;10.444;2023-07-31T09:41:39;2.88;;;2.10;;
12024;SDS011;6073;53.230;10.444;2023-07-31T09:44:06;3.20;;;2.65;;
12024;SDS011;6073;53.230;10.444;2023-07-31T09:46:33;4.80;;;3.00;;
12024;SDS011;6073;53.230;10.444;2023-07-31T09:51:37;7.32;;;3.28;;
12024;SDS011;6073;53.230;10.444;2023-07-31T09:54:08;5.55;;;3.95;;
12024;SDS011;6073;53.230;10.444;2023-07-31T09:56:36;8.55;;;4.20;;
12024;SDS011;6073;53.230;10.444;2023-07-31T09:59:03;6.18;;;4.03;;
12024;SDS011;6073;53.230;10.444;2023-07-31T10:01:30;6.28;;;4.10;;
12024;SDS011;6073;53.230;10.444;2023-07-31T10:03:56;7.45;;;4.30;;
12024;SDS011;6073;53.230;10.444;2023-07-31T10:06:23;7.85;;;4.75;;
12024;SDS011;6073;53.230;10.444;2023-07-31T10:08:50;8.68;;;4.82;;
12024;SDS011;6073;53.230;10.444;2023-07-31T10:11:17;8.00;;;5.15;;
12024;SDS011;6073;53.230;10.444;2023-07-31T10:13:44;9.57;;;5.03;;
12024;SDS011;6073;53.230;10.444;2023-07-31T10:16:10;9.43;;;5.70;;
12024;SDS011;6073;53.230;10.444;2023-07-31T10:18:37;9.32;;;5.47;;
12024;SDS011;6073;53.230;10.444;2023-07-31T10:21:03;8.98;;;5.35;;
12024;SDS011;6073;53.230;10.444;2023-07-31T10:23:29;12.25;;;6.10;;
12024;SDS011;6073;53.230;10.444;2023-07-31T10:25:55;8.45;;;5.45;;
12024;SDS011;6073;53.230;10.444;2023-07-31T10:28:23;9.55;;;5.13;;
12024;SDS011;6073;53.230;10.444;2023-07-31T10:30:50;13.52;;;5.72;;
12024;SDS011;6073;53.230;10.444;2023-07-31T10:33:16;10.05;;;5.60;;
12024;SDS011;6073;53.230;10.444;2023-07-31T10:35:43;8.80;;;5.75;;
12024;SDS011;6073;53.230;10.444;2023-07-31T10:38:11;9.40;;;5.38;;
12024;SDS011;6073;53.230;10.444;2023-07-31T10:40:37;12.63;;;5.70;;
12024;SDS011;6073;53.230;10.444;2023-07-31T10:43:04;8.85;;;4.78;;
12024;SDS011;6073;53.230;10.444;2023-07-31T10:48:01;8.00;;;4.82;;
12024;SDS011;6073;53.230;10.444;2023-07-31T10:50:29;7.22;;;5.13;;
12024;SDS011;6073;53.230;10.444;2023-07-31T10:52:57;7.05;;;5.25;;
12024;SDS011;6073;53.230;10.444;2023-07-31T10:57:57;8.50;;;5.43;;
12024;SDS011;6073;53.230;10.444;2023-07-31T11:00:43;9.15;;;5.25;;
12024;SDS011;6073;53.230;10.444;2023-07-31T11:03:10;5.65;;;4.70;;
12024;SDS011;6073;53.230;10.444;2023-07-31T11:08:19;8.30;;;4.53;;
12024;SDS011;6073;53.230;10.444;2023-07-31T11:10:48;7.88;;;4.65;;
12024;SDS011;6073;53.230;10.444;2023-07-31T11:13:26;6.68;;;4.32;;
12024;SDS011;6073;53.230;10.444;2023-07-31T11:15:51;4.97;;;3.83;;
12024;SDS011;6073;53.230;10.444;2023-07-31T11:18:17;10.85;;;4.38;;
12024;SDS011;6073;53.230;10.444;2023-07-31T11:20:43;6.30;;;4.22;;
12024;SDS011;6073;53.230;10.444;2023-07-31T11:23:09;7.07;;;3.75;;
12024;SDS011;6073;53.230;10.444;2023-07-31T11:25:35;5.80;;;3.97;;
12024;SDS011;6073;53.230;10.444;2023-07-31T11:28:03;7.47;;;3.88;;
12024;SDS011;6073;53.230;10.444;2023-07-31T11:30:30;4.90;;;3.58;;
12024;SDS011;6073;53.230;10.444;2023-07-31T11:32:55;4.25;;;3.38;;
12024;SDS011;6073;53.230;10.444;2023-07-31T11:35:21;5.50;;;3.33;;
12024;SDS011;6073;53.230;10.444;2023-07-31T11:37:47;5.72;;;2.97;;
12024;SDS011;6073;53.230;10.444;2023-07-31T11:40:13;8.73;;;3.40;;
12024;SDS011;6073;53.230;10.444;2023-07-31T11:42:39;5.63;;;3.30;;
12024;SDS011;6073;53.230;10.444;2023-07-31T11:45:05;5.30;;;3.58;;
12024;SDS011;6073;53.230;10.444;2023-07-31T11:47:32;6.85;;;3.63;;
12024;SDS011;6073;53.230;10.444;2023-07-31T11:50:02;3.22;;;2.72;;
12024;SDS011;6073;53.230;10.444;2023-07-31T11:52:29;3.85;;;3.15;;
12024;SDS011;6073;53.230;10.444;2023-07-31T11:54:56;3.22;;;2.50;;
12024;SDS011;6073;53.230;10.444;2023-07-31T11:57:22;3.47;;;2.13;;
12024;SDS011;6073;53.230;10.444;2023-07-31T11:59:49;2.85;;;2.00;;
12024;SDS011;6073;53.230;10.444;2023-07-31T12:02:15;2.40;;;2.20;;
12024;SDS011;6073;53.230;10.444;2023-07-31T12:04:42;2.45;;;2.08;;
12024;SDS011;6073;53.230;10.444;2023-07-31T12:07:08;2.80;;;2.28;;
12024;SDS011;6073;53.230;10.444;2023-07-31T12:09:33;2.67;;;2.22;;
12024;SDS011;6073;53.230;10.444;2023-07-31T12:11:59;3.05;;;2.33;;
12024;SDS011;6073;53.230;10.444;2023-07-31T12:14:25;3.17;;;2.08;;
12024;SDS011;6073;53.230;10.444;2023-07-31T12:16:58;2.50;;;2.10;;
12024;SDS011;6073;53.230;10.444;2023-07-31T12:19:25;2.75;;;2.35;;
12024;SDS011;6073;53.230;10.444;2023-07-31T12:21:58;2.03;;;1.85;;
12024;SDS011;6073;53.230;10.444;2023-07-31T12:24:25;3.05;;;2.00;;
12024;SDS011;6073;53.230;10.444;2023-07-31T12:26:51;2.17;;;2.00;;
12024;SDS011;6073;53.230;10.444;2023-07-31T12:29:17;2.92;;;2.25;;
12024;SDS011;6073;53.230;10.444;2023-07-31T12:31:43;3.45;;;2.17;;
12024;SDS011;6073;53.230;10.444;2023-07-31T12:34:18;2.00;;;1.80;;
12024;SDS011;6073;53.230;10.444;2023-07-31T12:36:48;2.72;;;2.13;;
12024;SDS011;6073;53.230;10.444;2023-07-31T12:39:14;4.20;;;2.00;;
12024;SDS011;6073;53.230;10.444;2023-07-31T12:41:40;4.03;;;2.00;;
12024;SDS011;6073;53.230;10.444;2023-07-31T12:44:05;2.10;;;1.85;;
12024;SDS011;6073;53.230;10.444;2023-07-31T12:46:31;2.67;;;1.80;;
12024;SDS011;6073;53.230;10.444;2023-07-31T12:48:56;2.58;;;1.98;;
12024;SDS011;6073;53.230;10.444;2023-07-31T12:51:22;2.30;;;2.10;;
12024;SDS011;6073;53.230;10.444;2023-07-31T12:53:47;2.42;;;2.22;;
12024;SDS011;6073;53.230;10.444;2023-07-31T12:56:13;2.30;;;2.10;;
12024;SDS011;6073;53.230;10.444;2023-07-31T12:58:38;2.70;;;2.08;;
12024;SDS011;6073;53.230;10.444;2023-07-31T13:01:04;2.60;;;1.77;;
12024;SDS011;6073;53.230;10.444;2023-07-31T13:03:30;2.45;;;2.10;;
12024;SDS011;6073;53.230;10.444;2023-07-31T13:05:56;2.28;;;1.92;;
12024;SDS011;6073;53.230;10.444;2023-07-31T13:08:21;2.20;;;2.00;;
12024;SDS011;6073;53.230;10.444;2023-07-31T13:10:47;3.22;;;2.00;;
12024;SDS011;6073;53.230;10.444;2023-07-31T13:13:13;2.22;;;2.03;;
12024;SDS011;6073;53.230;10.444;2023-07-31T13:15:38;2.10;;;1.90;;
12024;SDS011;6073;53.230;10.444;2023-07-31T13:18:04;2.17;;;1.98;;
12024;SDS011;6073;53.230;10.444;2023-07-31T13:20:29;1.90;;;1.80;;
12024;SDS011;6073;53.230;10.444;2023-07-31T13:22:55;2.20;;;2.00;;
12024;SDS011;6073;53.230;10.444;2023-07-31T13:25:20;2.33;;;2.08;;
12024;SDS011;6073;53.230;10.444;2023-07-31T13:27:46;2.80;;;2.08;;
12024;SDS011;6073;53.230;10.444;2023-07-31T13:30:11;2.58;;;2.35;;
12024;SDS011;6073;53.230;10.444;2023-07-31T13:32:37;2.28;;;2.00;;
12024;SDS011;6073;53.230;10.444;2023-07-31T13:35:05;3.40;;;2.03;;
12024;SDS011;6073;53.230;10.444;2023-07-31T13:37:32;2.80;;;1.90;;
12024;SDS011;6073;53.230;10.444;2023-07-31T13:39:57;1.75;;;1.65;;
12024;SDS011;6073;53.230;10.444;2023-07-31T13:42:23;1.67;;;1.58;;
12024;SDS011;6073;53.230;10.444;2023-07-31T13:44:48;2.17;;;1.77;;
12024;SDS011;6073;53.230;10.444;2023-07-31T13:47:14;2.10;;;1.90;;
12024;SDS011;6073;53.230;10.444;2023-07-31T13:49:40;2.10;;;1.90;;
12024;SDS011;6073;53.230;10.444;2023-07-31T13:52:06;1.50;;;1.40;;
12024;SDS011;6073;53.230;10.444;2023-07-31T13:54:32;2.75;;;1.60;;
12024;SDS011;6073;53.230;10.444;2023-07-31T13:56:57;1.50;;;1.40;;
12024;SDS011;6073;53.230;10.444;2023-07-31T13:59:23;2.17;;;1.42;;
12024;SDS011;6073;53.230;10.444;2023-07-31T14:01:49;1.70;;;1.60;;
12024;SDS011;6073;53.230;10.444;2023-07-31T14:04:15;1.70;;;1.60;;
12024;SDS011;6073;53.230;10.444;2023-07-31T14:06:42;1.80;;;1.70;;
12024;SDS011;6073;53.230;10.444;2023-07-31T14:09:08;1.60;;;1.50;;
12024;SDS011;6073;53.230;10.444;2023-07-31T14:11:33;1.52;;;1.42;;
12024;SDS011;6073;53.230;10.444;2023-07-31T14:13:59;1.40;;;1.30;;
12024;SDS011;6073;53.230;10.444;2023-07-31T14:16:26;1.40;;;1.30;;
12024;SDS011;6073;53.230;10.444;2023-07-31T14:18:53;1.75;;;1.65;;
12024;SDS011;6073;53.230;10.444;2023-07-31T14:21:19;2.08;;;1.70;;
12024;SDS011;6073;53.230;10.444;2023-07-31T14:23:45;3.60;;;2.00;;
12024;SDS011;6073;53.230;10.444;2023-07-31T14:26:11;1.77;;;1.67;;
12024;SDS011;6073;53.230;10.444;2023-07-31T14:28:37;2.10;;;1.90;;
12024;SDS011;6073;53.230;10.444;2023-07-31T14:31:02;2.63;;;1.80;;
12024;SDS011;6073;53.230;10.444;2023-07-31T14:33:28;2.58;;;2.38;;
12024;SDS011;6073;53.230;10.444;2023-07-31T14:35:54;2.00;;;1.80;;
12024;SDS011;6073;53.230;10.444;2023-07-31T14:38:19;2.33;;;2.13;;
12024;SDS011;6073;53.230;10.444;2023-07-31T14:40:45;2.83;;;2.50;;
12024;SDS011;6073;53.230;10.444;2023-07-31T14:43:11;3.95;;;2.47;;
12024;SDS011;6073;53.230;10.444;2023-07-31T14:45:36;2.30;;;2.10;;
12024;SDS011;6073;53.230;10.444;2023-07-31T14:48:02;3.40;;;2.05;;
12024;SDS011;6073;53.230;10.444;2023-07-31T14:50:27;3.58;;;2.38;;
12024;SDS011;6073;53.230;10.444;2023-07-31T14:52:53;2.50;;;2.30;;
12024;SDS011;6073;53.230;10.444;2023-07-31T14:55:19;2.50;;;2.30;;